createdAt,value
2018-11-02T00:00:25.786Z,32.60
2018-11-02T00:02:54.150Z,32.80
2018-11-02T00:05:22.766Z,33.10
2018-11-02T00:07:51.741Z,32.73
2018-11-02T00:10:20.658Z,32.27
2018-11-02T00:12:49.299Z,32.77
2018-11-02T00:15:17.887Z,33.03
2018-11-02T00:17:46.394Z,32.93
2018-11-02T00:20:14.981Z,33.03
2018-11-02T00:22:43.797Z,33.10
2018-11-02T00:25:13.263Z,34.30
2018-11-02T00:27:42.021Z,34.17
2018-11-02T00:30:11.121Z,33.07
2018-11-02T00:32:39.594Z,34.83
2018-11-02T00:35:09.084Z,33.03
2018-11-02T00:37:38.678Z,33.17
2018-11-02T00:40:08.636Z,34.07
2018-11-02T00:42:44.127Z,33.90
2018-11-02T00:45:12.982Z,34.77
2018-11-02T00:47:41.907Z,34.37
2018-11-02T00:50:11.963Z,34.43
2018-11-02T00:52:40.438Z,34.97
2018-11-02T00:55:09.422Z,34.90
2018-11-02T00:57:38.694Z,35.53
2018-11-02T01:00:09.897Z,36.83
2018-11-02T01:02:38.404Z,36.80
2018-11-02T01:05:07.344Z,36.63
2018-11-02T01:07:36.094Z,35.20
2018-11-02T01:10:04.862Z,36.20
2018-11-02T01:12:33.498Z,39.43
2018-11-02T01:15:01.982Z,38.83
2018-11-02T01:17:30.665Z,37.60
2018-11-02T01:19:59.781Z,36.43
2018-11-02T01:22:28.248Z,36.70
2018-11-02T01:24:56.907Z,36.73
2018-11-02T01:27:25.841Z,36.63
2018-11-02T01:29:54.299Z,37.77
2018-11-02T01:32:22.773Z,34.80
2018-11-02T01:34:51.763Z,36.87
2018-11-02T01:37:20.205Z,34.73
2018-11-02T01:39:48.724Z,36.73
2018-11-02T01:42:17.677Z,35.20
2018-11-02T01:44:46.154Z,35.00
2018-11-02T01:47:14.750Z,34.27
2018-11-02T01:49:43.861Z,33.83
2018-11-02T01:52:12.314Z,35.10
2018-11-02T01:54:40.807Z,35.70
2018-11-02T01:57:09.813Z,34.47
2018-11-02T01:59:38.317Z,35.20
2018-11-02T02:02:06.882Z,33.97
2018-11-02T02:04:35.812Z,34.40
2018-11-02T02:07:04.321Z,32.40
2018-11-02T02:09:32.806Z,34.93
2018-11-02T02:12:01.449Z,33.23
2018-11-02T02:14:29.890Z,34.47
2018-11-02T02:16:58.434Z,33.80
2018-11-02T02:19:27.131Z,33.20
2018-11-02T02:21:55.629Z,34.23
2018-11-02T02:24:24.137Z,34.67
2018-11-02T02:26:53.373Z,33.67
2018-11-02T02:29:21.825Z,32.80
2018-11-02T02:31:50.341Z,32.10
2018-11-02T02:34:19.141Z,32.93
2018-11-02T02:36:47.598Z,34.53
2018-11-02T02:39:16.171Z,33.20
2018-11-02T02:41:44.819Z,33.00
2018-11-02T02:44:13.299Z,32.83
2018-11-02T02:46:42.747Z,32.17
2018-11-02T02:49:11.548Z,33.17
2018-11-02T02:51:40.005Z,31.93
2018-11-02T02:54:08.510Z,33.70
2018-11-02T02:56:37.200Z,32.23
2018-11-02T02:59:05.661Z,32.90
2018-11-02T03:01:34.178Z,32.90
2018-11-02T03:04:03.956Z,32.30
2018-11-02T03:06:32.421Z,33.07
2018-11-02T03:09:00.933Z,31.43
2018-11-02T03:11:30.013Z,31.43
2018-11-02T03:13:58.466Z,32.90
2018-11-02T03:16:26.953Z,32.83
2018-11-02T03:18:55.770Z,32.57
2018-11-02T03:21:24.219Z,31.23
2018-11-02T03:23:52.794Z,31.23
2018-11-02T03:26:21.809Z,32.70
2018-11-02T03:28:50.466Z,31.40
2018-11-02T03:31:18.986Z,29.93
2018-11-02T03:33:47.901Z,32.10
2018-11-02T03:36:16.353Z,30.17
2018-11-02T03:38:44.921Z,31.13
2018-11-02T03:41:13.925Z,30.87
2018-11-02T03:43:42.401Z,30.47
2018-11-02T03:46:10.877Z,30.17
2018-11-02T03:48:39.558Z,30.60
2018-11-02T03:51:08.074Z,29.80
2018-11-02T03:53:36.859Z,29.87
2018-11-02T03:56:05.733Z,30.70
2018-11-02T03:58:34.214Z,29.67
2018-11-02T04:01:02.714Z,28.90
2018-11-02T04:03:31.799Z,30.93
2018-11-02T04:06:00.271Z,29.90
2018-11-02T04:08:28.777Z,30.30
2018-11-02T04:10:57.846Z,29.53
2018-11-02T04:13:26.313Z,28.47
2018-11-02T04:15:54.815Z,30.50
2018-11-02T04:18:23.899Z,30.10
2018-11-02T04:20:52.409Z,29.93
2018-11-02T04:23:20.886Z,29.40
2018-11-02T04:25:49.481Z,29.00
2018-11-02T04:28:17.961Z,27.60
2018-11-02T04:30:46.667Z,27.37
2018-11-02T04:33:15.247Z,28.17
2018-11-02T04:35:43.748Z,27.50
2018-11-02T04:38:12.246Z,28.07
2018-11-02T04:40:40.889Z,25.80
2018-11-02T04:43:09.380Z,27.07
2018-11-02T04:45:39.790Z,25.83
2018-11-02T04:48:10.611Z,26.47
2018-11-02T04:50:39.409Z,27.77
2018-11-02T04:53:08.176Z,26.17
2018-11-02T04:55:37.267Z,27.10
2018-11-02T04:58:05.802Z,25.57
2018-11-02T05:00:34.314Z,26.07
2018-11-02T05:03:03.922Z,26.70
2018-11-02T05:05:32.432Z,27.63
2018-11-02T05:08:00.934Z,26.63
2018-11-02T05:10:29.986Z,25.17
2018-11-02T05:12:58.485Z,26.53
2018-11-02T05:15:26.961Z,25.53
2018-11-02T05:17:56.343Z,24.90
2018-11-02T05:20:24.910Z,26.80
2018-11-02T05:22:53.369Z,26.63
2018-11-02T05:25:22.318Z,25.20
2018-11-02T05:27:50.810Z,26.73
2018-11-02T05:30:19.273Z,26.93
2018-11-02T05:32:48.650Z,25.70
2018-11-02T05:35:17.144Z,24.60
2018-11-02T05:37:45.608Z,26.47
2018-11-02T05:40:14.219Z,25.00
2018-11-02T05:42:42.713Z,25.77
2018-11-02T05:45:11.253Z,26.87
2018-11-02T05:47:40.361Z,25.70
2018-11-02T05:50:08.906Z,25.70
2018-11-02T05:52:37.405Z,25.97
2018-11-02T05:55:08.219Z,24.73
2018-11-02T05:57:36.719Z,24.40
2018-11-02T06:00:05.665Z,26.23
2018-11-02T06:02:34.826Z,26.23
2018-11-02T06:05:03.355Z,24.67
2018-11-02T06:07:31.797Z,25.57
2018-11-02T06:10:00.890Z,25.93
2018-11-02T06:12:30.602Z,26.17
2018-11-02T06:14:59.142Z,25.70
2018-11-02T06:17:28.173Z,26.07
2018-11-02T06:19:56.649Z,27.80
2018-11-02T06:22:25.397Z,27.97
2018-11-02T06:24:54.537Z,27.67
2018-11-02T06:27:24.054Z,27.03
2018-11-02T06:29:52.689Z,26.90
2018-11-02T06:32:21.573Z,28.97
2018-11-02T06:34:50.207Z,27.17
2018-11-02T06:37:18.718Z,29.57
2018-11-02T06:39:47.878Z,29.73
2018-11-02T06:42:16.425Z,30.13
2018-11-02T06:44:44.925Z,30.67
2018-11-02T06:47:13.959Z,30.30
2018-11-02T06:49:42.466Z,29.40
2018-11-02T06:52:11.082Z,28.70
2018-11-02T06:54:46.238Z,31.10
2018-11-02T06:57:15.710Z,31.90
2018-11-02T06:59:44.324Z,29.23
2018-11-02T07:02:13.518Z,30.93
2018-11-02T07:04:42.032Z,38.47
2018-11-02T07:07:10.578Z,31.33
2018-11-02T07:09:39.323Z,32.13
2018-11-02T07:12:07.790Z,31.27
2018-11-02T07:14:36.295Z,32.13
2018-11-02T07:17:04.989Z,32.23
2018-11-02T07:19:33.493Z,31.93
2018-11-02T07:22:02.314Z,33.93
2018-11-02T07:24:31.288Z,31.97
2018-11-02T07:27:00.350Z,34.80
2018-11-02T07:29:29.469Z,36.63
2018-11-02T07:31:58.156Z,34.37
2018-11-02T07:34:26.722Z,34.07
2018-11-02T07:36:55.315Z,35.03
2018-11-02T07:39:24.543Z,34.43
2018-11-02T07:41:53.073Z,36.17
2018-11-02T07:44:21.873Z,37.40
2018-11-02T07:46:50.990Z,33.93
2018-11-02T07:49:19.514Z,33.67
2018-11-02T07:51:47.945Z,34.90
2018-11-02T07:54:17.061Z,35.50
2018-11-02T07:56:45.742Z,34.17
2018-11-02T07:59:21.478Z,34.03
2018-11-02T08:01:50.041Z,33.73
2018-11-02T08:04:19.534Z,35.00
2018-11-02T08:06:48.468Z,33.50
2018-11-02T08:09:16.925Z,34.40
2018-11-02T08:11:45.414Z,32.63
2018-11-02T08:14:14.513Z,33.57
2018-11-02T08:16:43.001Z,34.80
2018-11-02T08:19:11.477Z,31.40
2018-11-02T08:21:40.260Z,33.63
2018-11-02T08:24:08.703Z,32.07
2018-11-02T08:26:37.255Z,31.97
2018-11-02T08:29:06.253Z,31.97
2018-11-02T08:31:34.709Z,33.13
2018-11-02T08:34:03.165Z,33.87
2018-11-02T08:36:31.909Z,31.87
2018-11-02T08:39:00.490Z,32.67
2018-11-02T08:41:28.943Z,31.50
2018-11-02T08:43:57.820Z,31.20
2018-11-02T08:46:26.313Z,31.90
2018-11-02T08:48:55.326Z,31.60
2018-11-02T08:51:24.329Z,31.93
2018-11-02T08:53:52.806Z,29.13
2018-11-02T08:56:21.358Z,30.53
2018-11-02T08:58:51.668Z,30.87
2018-11-02T09:01:19.993Z,29.67
2018-11-02T09:03:48.445Z,29.67
2018-11-02T09:06:17.526Z,29.70
2018-11-02T09:08:45.957Z,29.53
2018-11-02T09:11:14.577Z,28.57
2018-11-02T09:13:43.577Z,29.27
2018-11-02T09:16:12.038Z,28.57
2018-11-02T09:18:40.482Z,29.80
2018-11-02T09:21:09.321Z,28.67
2018-11-02T09:23:37.957Z,28.87
2018-11-02T09:26:06.661Z,28.23
2018-11-02T09:28:35.454Z,28.67
2018-11-02T09:31:04.031Z,27.37
2018-11-02T09:33:32.497Z,28.30
2018-11-02T09:36:01.312Z,30.07
2018-11-02T09:38:29.944Z,28.70
2018-11-02T09:40:58.538Z,29.47
2018-11-02T09:43:29.626Z,31.27
2018-11-02T09:45:59.170Z,30.27
2018-11-02T09:48:27.688Z,29.67
2018-11-02T09:50:56.926Z,32.37
2018-11-02T09:53:26.078Z,33.23
2018-11-02T09:55:54.533Z,30.73
2018-11-02T09:58:23.629Z,29.80
2018-11-02T10:00:52.537Z,29.10
2018-11-02T10:03:20.601Z,31.03
2018-11-02T10:05:49.653Z,29.50
2018-11-02T10:08:18.203Z,31.33
2018-11-02T10:10:46.663Z,36.40
2018-11-02T10:13:15.710Z,30.37
2018-11-02T10:15:44.199Z,30.83
2018-11-02T10:18:12.658Z,31.60
2018-11-02T10:20:41.370Z,32.03
2018-11-02T10:23:09.861Z,32.70
2018-11-02T10:25:38.351Z,31.03
2018-11-02T10:28:07.560Z,33.63
2018-11-02T10:30:36.390Z,31.30
2018-11-02T10:33:04.889Z,30.20
2018-11-02T10:35:34.363Z,31.43
2018-11-02T10:38:03.162Z,31.17
2018-11-02T10:40:33.619Z,31.47
2018-11-02T10:43:07.008Z,31.13
2018-11-02T10:45:42.037Z,31.87
2018-11-02T10:48:11.134Z,32.10
2018-11-02T10:50:39.641Z,31.13
2018-11-02T10:53:08.206Z,28.43
2018-11-02T10:55:37.189Z,30.23
2018-11-02T10:58:06.053Z,31.33
2018-11-02T11:00:40.174Z,29.07
2018-11-02T11:03:08.707Z,30.00
2018-11-02T11:05:37.205Z,28.57
2018-11-02T11:08:05.840Z,29.20
2018-11-02T11:10:34.891Z,28.50
2018-11-02T11:13:03.752Z,29.87
2018-11-02T11:15:32.198Z,28.03
2018-11-02T11:18:00.832Z,27.83
2018-11-02T11:20:29.319Z,28.27
2018-11-02T11:22:57.895Z,27.67
2018-11-02T11:25:26.492Z,27.73
2018-11-02T11:27:54.997Z,24.90
2018-11-02T11:30:23.681Z,25.50
2018-11-02T11:32:53.055Z,19.93
2018-11-02T11:35:21.530Z,23.93
2018-11-02T11:37:50.430Z,25.73
2018-11-02T11:40:20.177Z,24.13
2018-11-02T11:42:48.738Z,23.57
2018-11-02T11:45:18.945Z,24.30
2018-11-02T11:47:47.850Z,21.30
2018-11-02T11:50:19.669Z,22.93
2018-11-02T11:52:49.690Z,22.77
2018-11-02T11:55:18.469Z,21.60
2018-11-02T11:57:47.329Z,21.73
2018-11-02T12:00:17.986Z,22.10
2018-11-02T12:02:47.607Z,19.93
2018-11-02T12:05:18.225Z,15.00
2018-11-02T12:07:47.312Z,14.57
2018-11-02T12:10:19.568Z,23.87
2018-11-02T12:12:48.308Z,23.73
2018-11-02T12:15:18.179Z,26.77
2018-11-02T12:17:47.458Z,25.60
2018-11-02T12:20:20.508Z,21.07
2018-11-02T12:22:50.055Z,26.07
2018-11-02T12:25:18.592Z,23.17
2018-11-02T12:27:47.314Z,26.40
2018-11-02T12:30:17.230Z,24.60
2018-11-02T12:32:46.117Z,24.70
2018-11-02T12:35:16.408Z,24.43
2018-11-02T12:37:46.161Z,23.90
2018-11-02T12:40:16.849Z,24.03
2018-11-02T12:42:47.076Z,23.97
2018-11-02T12:45:16.879Z,24.13
2018-11-02T12:47:45.889Z,21.73
2018-11-02T12:50:17.216Z,22.73
2018-11-02T12:52:46.405Z,22.83
2018-11-02T12:55:15.355Z,22.87
2018-11-02T12:57:44.616Z,22.23
2018-11-02T13:00:15.409Z,22.70
2018-11-02T13:02:44.853Z,22.40
2018-11-02T13:05:13.982Z,23.87
2018-11-02T13:07:42.485Z,22.97
2018-11-02T13:10:15.723Z,23.50
2018-11-02T13:12:44.687Z,23.27
2018-11-02T13:15:15.309Z,23.27
2018-11-02T13:17:45.571Z,23.77
2018-11-02T13:20:15.508Z,21.53
2018-11-02T13:22:44.629Z,21.43
2018-11-02T13:25:14.510Z,20.90
2018-11-02T13:27:43.621Z,21.90
2018-11-02T13:30:12.350Z,22.57
2018-11-02T13:32:41.157Z,21.83
2018-11-02T13:35:12.062Z,22.50
2018-11-02T13:37:41.083Z,21.47
2018-11-02T13:40:11.253Z,20.30
2018-11-02T13:42:40.293Z,21.00
2018-11-02T13:45:10.335Z,20.37
2018-11-02T13:47:39.761Z,19.73
2018-11-02T13:50:08.632Z,20.13
2018-11-02T13:52:37.106Z,18.40
2018-11-02T13:55:07.049Z,20.33
2018-11-02T13:57:35.666Z,20.40
2018-11-02T14:00:04.875Z,20.33
2018-11-02T14:02:33.726Z,20.40
2018-11-02T14:05:02.466Z,20.43
2018-11-02T14:07:30.989Z,19.43
2018-11-02T14:09:59.837Z,20.27
2018-11-02T14:12:28.943Z,19.83
2018-11-02T14:14:57.408Z,20.77
2018-11-02T14:17:26.020Z,20.80
2018-11-02T14:19:54.998Z,19.63
2018-11-02T14:22:23.479Z,20.87
2018-11-02T14:24:52.209Z,20.70
2018-11-02T14:27:21.288Z,19.73
2018-11-02T14:29:49.764Z,21.03
2018-11-02T14:32:18.601Z,20.73
2018-11-02T14:34:47.325Z,20.07
2018-11-02T14:37:15.782Z,19.30
2018-11-02T14:39:44.634Z,21.70
2018-11-02T14:42:13.203Z,15.87
2018-11-02T14:44:41.668Z,17.83
2018-11-02T14:47:10.369Z,20.23
2018-11-02T14:49:39.197Z,19.97
2018-11-02T14:52:07.829Z,21.00
2018-11-02T14:54:36.735Z,21.37
2018-11-02T14:57:05.824Z,21.40
2018-11-02T14:59:34.350Z,21.40
2018-11-02T15:02:03.155Z,21.03
2018-11-02T15:04:31.838Z,18.27
2018-11-02T15:07:00.302Z,22.47
2018-11-02T15:09:28.915Z,22.03
2018-11-02T15:11:57.534Z,21.50
2018-11-02T15:14:26.014Z,22.30
2018-11-02T15:16:54.897Z,22.90
2018-11-02T15:19:23.480Z,20.77
2018-11-02T15:21:51.911Z,22.50
2018-11-02T15:24:20.653Z,22.90
2018-11-02T15:26:49.501Z,22.40
2018-11-02T15:29:17.984Z,23.93
2018-11-02T15:31:46.559Z,22.17
2018-11-02T15:34:15.271Z,22.70
2018-11-02T15:36:43.763Z,21.67
2018-11-02T15:39:13.329Z,22.03
2018-11-02T15:41:42.188Z,21.77
2018-11-02T15:44:10.700Z,23.80
2018-11-02T15:46:39.218Z,23.40
2018-11-02T15:49:07.903Z,24.63
2018-11-02T15:51:36.553Z,23.53
2018-11-02T15:54:05.824Z,24.37
2018-11-02T15:56:34.406Z,24.27
2018-11-02T15:59:03.063Z,23.23
2018-11-02T16:01:31.854Z,23.27
2018-11-02T16:04:00.598Z,24.13
2018-11-02T16:06:29.297Z,24.23
2018-11-02T16:08:58.234Z,23.97
2018-11-02T16:11:26.998Z,24.57
2018-11-02T16:13:55.502Z,23.30
2018-11-02T16:16:24.082Z,24.77
2018-11-02T16:18:52.774Z,23.63
2018-11-02T16:21:21.362Z,22.97
2018-11-02T16:23:49.918Z,24.17
2018-11-02T16:26:20.043Z,24.13
2018-11-02T16:28:48.774Z,22.23
2018-11-02T16:31:17.363Z,22.83
2018-11-02T16:33:46.386Z,23.37
2018-11-02T16:36:14.873Z,23.23
2018-11-02T16:38:43.669Z,23.50
2018-11-02T16:41:12.408Z,22.67
2018-11-02T16:43:40.963Z,23.03
2018-11-02T16:46:10.101Z,22.83
2018-11-02T16:48:39.391Z,22.90
2018-11-02T16:51:07.961Z,20.40
2018-11-02T16:53:36.859Z,20.03
2018-11-02T16:56:05.694Z,19.70
2018-11-02T16:58:39.294Z,19.83
2018-11-02T17:01:08.399Z,16.83
2018-11-02T17:03:36.879Z,17.73
2018-11-02T17:06:05.690Z,18.43
2018-11-02T17:08:35.631Z,16.97
2018-11-02T17:11:04.125Z,17.43
2018-11-02T17:13:33.005Z,15.17
2018-11-02T17:16:01.855Z,15.83
2018-11-02T17:18:30.551Z,15.20
2018-11-02T17:20:59.733Z,14.47
2018-11-02T17:23:28.469Z,14.10
2018-11-02T17:25:57.010Z,14.93
2018-11-02T17:28:26.092Z,12.53
2018-11-02T17:30:55.042Z,12.93
2018-11-02T17:33:23.537Z,13.30
2018-11-02T17:35:52.196Z,12.73
2018-11-02T17:38:20.913Z,11.67
2018-11-02T17:40:49.393Z,12.63
2018-11-02T17:43:18.106Z,12.17
2018-11-02T17:45:46.710Z,11.87
2018-11-02T17:48:15.220Z,11.70
2018-11-02T17:50:43.768Z,12.60
2018-11-02T17:53:12.360Z,12.03
2018-11-02T17:55:40.972Z,10.73
2018-11-02T17:58:09.662Z,11.53
2018-11-02T18:00:38.713Z,11.40
2018-11-02T18:03:07.210Z,10.57
2018-11-02T18:05:35.764Z,10.57
2018-11-02T18:08:04.451Z,9.93
2018-11-02T18:10:33.314Z,10.57
2018-11-02T18:13:02.396Z,9.17
2018-11-02T18:15:30.997Z,9.80
2018-11-02T18:17:59.561Z,10.70
2018-11-02T18:20:28.739Z,10.67
2018-11-02T18:22:58.070Z,9.80
2018-11-02T18:25:28.506Z,10.70
2018-11-02T18:27:57.196Z,9.83
2018-11-02T18:30:26.038Z,9.40
2018-11-02T18:32:54.766Z,9.87
2018-11-02T18:35:23.664Z,10.17
2018-11-02T18:37:52.307Z,10.00
2018-11-02T18:40:20.878Z,10.27
2018-11-02T18:42:49.518Z,9.10
2018-11-02T18:45:18.211Z,10.00
2018-11-02T18:47:48.084Z,9.80
2018-11-02T18:50:17.961Z,9.67
2018-11-02T18:52:47.717Z,9.20
2018-11-02T18:55:16.869Z,9.73
2018-11-02T18:57:45.764Z,10.03
2018-11-02T19:00:14.498Z,10.17
2018-11-02T19:02:43.054Z,9.40
2018-11-02T19:05:14.230Z,9.80
2018-11-02T19:07:43.148Z,9.83
2018-11-02T19:10:12.145Z,9.67
2018-11-02T19:12:41.231Z,10.20
2018-11-02T19:15:15.253Z,9.50
2018-11-02T19:17:44.121Z,10.03
2018-11-02T19:20:12.968Z,9.73
2018-11-02T19:22:41.473Z,9.63
2018-11-02T19:25:11.507Z,9.33
2018-11-02T19:27:40.534Z,9.40
2018-11-02T19:30:10.641Z,9.47
2018-11-02T19:32:39.435Z,10.77
2018-11-02T19:35:08.862Z,10.07
2018-11-02T19:37:37.394Z,10.60
2018-11-02T19:40:09.353Z,10.77
2018-11-02T19:42:38.144Z,10.50
2018-11-02T19:45:07.686Z,10.80
2018-11-02T19:47:41.535Z,10.80
2018-11-02T19:50:11.902Z,9.50
2018-11-02T19:52:40.397Z,9.57
2018-11-02T19:55:10.154Z,10.37
2018-11-02T19:57:38.791Z,9.77
2018-11-02T20:00:09.649Z,11.03
2018-11-02T20:02:39.189Z,10.13
2018-11-02T20:05:09.582Z,10.63
2018-11-02T20:07:38.565Z,10.27
2018-11-02T20:10:07.802Z,10.90
2018-11-02T20:12:37.100Z,10.27
2018-11-02T20:15:06.904Z,10.23
2018-11-02T20:17:36.339Z,10.73
2018-11-02T20:20:05.977Z,11.43
2018-11-02T20:22:35.194Z,9.80
2018-11-02T20:25:03.884Z,10.63
2018-11-02T20:27:32.458Z,10.40
2018-11-02T20:30:01.083Z,10.97
2018-11-02T20:32:29.748Z,10.60
2018-11-02T20:34:58.221Z,9.93
2018-11-02T20:37:26.729Z,10.47
2018-11-02T20:39:55.427Z,11.70
2018-11-02T20:42:24.426Z,11.83
2018-11-02T20:44:52.924Z,11.90
2018-11-02T20:47:21.671Z,11.30
2018-11-02T20:49:50.363Z,11.73
2018-11-02T20:52:18.938Z,11.47
2018-11-02T20:54:47.695Z,11.13
2018-11-02T20:57:16.476Z,9.57
2018-11-02T20:59:44.952Z,11.63
2018-11-02T21:02:14.105Z,11.03
2018-11-02T21:04:42.926Z,12.00
2018-11-02T21:07:11.672Z,11.27
2018-11-02T21:09:40.398Z,11.17
2018-11-02T21:12:09.277Z,10.00
2018-11-02T21:14:37.937Z,11.00
2018-11-02T21:17:07.214Z,10.63
2018-11-02T21:19:35.742Z,11.20
2018-11-02T21:22:04.596Z,11.80
2018-11-02T21:24:33.144Z,11.23
2018-11-02T21:27:01.921Z,10.53
2018-11-02T21:29:30.385Z,10.87
2018-11-02T21:31:59.235Z,10.30
2018-11-02T21:34:27.954Z,10.33
2018-11-02T21:36:56.503Z,10.30
2018-11-02T21:39:25.314Z,11.67
2018-11-02T21:41:54.074Z,10.17
2018-11-02T21:44:22.639Z,10.10
2018-11-02T21:46:51.343Z,9.60
2018-11-02T21:49:20.261Z,10.17
2018-11-02T21:51:48.727Z,10.17
2018-11-02T21:54:17.683Z,9.87
2018-11-02T21:56:46.588Z,9.63
2018-11-02T21:59:15.194Z,10.03
2018-11-02T22:01:43.784Z,9.17
2018-11-02T22:04:12.970Z,8.77
2018-11-02T22:06:41.473Z,9.83
2018-11-02T22:09:11.078Z,9.30
2018-11-02T22:11:39.788Z,8.70
2018-11-02T22:14:09.114Z,9.57
2018-11-02T22:16:37.737Z,9.00
2018-11-02T22:19:06.526Z,8.70
2018-11-02T22:21:35.151Z,9.27
2018-11-02T22:24:04.401Z,9.37
2018-11-02T22:26:33.177Z,8.23
2018-11-02T22:29:01.668Z,8.37
2018-11-02T22:31:30.467Z,9.30
2018-11-02T22:33:59.195Z,8.90
2018-11-02T22:36:27.954Z,8.73
2018-11-02T22:38:56.525Z,8.33
2018-11-02T22:41:25.347Z,7.93
2018-11-02T22:43:53.851Z,7.30
2018-11-02T22:46:22.874Z,8.57
2018-11-02T22:48:51.607Z,8.93
2018-11-02T22:51:20.105Z,7.80
2018-11-02T22:53:48.753Z,8.10
2018-11-02T22:56:17.664Z,8.07
2018-11-02T22:58:46.200Z,7.80
2018-11-02T23:01:20.045Z,7.97
2018-11-02T23:03:48.665Z,7.20
2018-11-02T23:06:17.294Z,7.00
2018-11-02T23:08:46.378Z,7.60
2018-11-02T23:11:15.088Z,7.00
2018-11-02T23:13:43.602Z,7.20
2018-11-02T23:16:12.193Z,6.97
2018-11-02T23:18:41.328Z,7.90
2018-11-02T23:21:09.818Z,5.60
2018-11-02T23:23:38.510Z,7.97
2018-11-02T23:26:07.151Z,7.10
2018-11-02T23:28:35.701Z,7.10
2018-11-02T23:31:04.446Z,7.30
2018-11-02T23:33:33.275Z,7.17
2018-11-02T23:36:01.766Z,6.40
2018-11-02T23:38:30.804Z,6.40
2018-11-02T23:40:59.530Z,7.17
2018-11-02T23:43:28.034Z,6.30
2018-11-02T23:45:56.914Z,6.50
2018-11-02T23:48:25.674Z,5.87
2018-11-02T23:50:54.149Z,6.43
2018-11-02T23:53:22.993Z,6.87
2018-11-02T23:55:51.643Z,6.47
2018-11-02T23:58:20.242Z,6.20
